Terminal Aerodrome Forecast
Issued by NWS Louisville, KY

Home | Current Version | Previous Version | Text Only | Print | Product List | Glossary On
Versions: 1 2 3 4 5 6 7 8 9 10 11 12 13
000
FTUS43 KLMK 130521
TAFSDF
TAF
KSDF 130521Z 1306/1412 28006KT P6SM SKC
     FM130900 20006KT P6SM SKC
     FM131500 20017G29KT P6SM SCT250
     FM140200 27012G23KT P6SM SCT035
     FM140900 29008KT P6SM BKN035=

USA.gov is the U.S. government's official web portal to all federal, state and local government web resources and services.